sensor_id;sensor_type;location;lat;lon;timestamp;pressure;altitude;pressure_sealevel;temperature;humidity
4133;BME280;2080;51.038;7.008;2023-02-22T00:00:22;76572.84;;;-142.53;100.00
4133;BME280;2080;51.038;7.008;2023-02-22T00:03:01;76572.84;;;-142.53;100.00
4133;BME280;2080;51.038;7.008;2023-02-22T00:05:27;76565.09;;;-142.53;100.00
4133;BME280;2080;51.038;7.008;2023-02-22T00:07:56;76568.97;;;-142.53;100.00
4133;BME280;2080;51.038;7.008;2023-02-22T00:10:22;76561.19;;;-142.53;100.00
4133;BME280;2080;51.038;7.008;2023-02-22T00:12:50;76572.84;;;-142.53;100.00
4133;BME280;2080;51.038;7.008;2023-02-22T00:15:18;76572.84;;;-142.53;100.00
4133;BME280;2080;51.038;7.008;2023-02-22T00:17:44;76580.63;;;-142.53;100.00
4133;BME280;2080;51.038;7.008;2023-02-22T00:20:11;76600.03;;;-142.53;100.00
4133;BME280;2080;51.038;7.008;2023-02-22T00:22:42;76588.38;;;-142.53;100.00
4133;BME280;2080;51.038;7.008;2023-02-22T00:25:09;76572.84;;;-142.53;100.00
4133;BME280;2080;51.038;7.008;2023-02-22T00:27:39;76584.50;;;-142.53;100.00
4133;BME280;2080;51.038;7.008;2023-02-22T00:30:05;76580.63;;;-142.53;100.00
4133;BME280;2080;51.038;7.008;2023-02-22T00:32:31;76600.03;;;-142.53;100.00
4133;BME280;2080;51.038;7.008;2023-02-22T00:34:59;76600.03;;;-142.53;100.00
4133;BME280;2080;51.038;7.008;2023-02-22T00:37:24;76592.28;;;-142.53;100.00
4133;BME280;2080;51.038;7.008;2023-02-22T00:39:50;76592.28;;;-142.53;100.00
4133;BME280;2080;51.038;7.008;2023-02-22T00:42:18;76598.09;;;-142.53;100.00
4133;BME280;2080;51.038;7.008;2023-02-22T00:44:45;76600.03;;;-142.53;100.00
4133;BME280;2080;51.038;7.008;2023-02-22T00:47:13;76594.22;;;-142.53;100.00
4133;BME280;2080;51.038;7.008;2023-02-22T00:49:38;76584.50;;;-142.53;100.00
4133;BME280;2080;51.038;7.008;2023-02-22T00:52:04;76578.69;;;-142.53;100.00
4133;BME280;2080;51.038;7.008;2023-02-22T00:54:30;76572.84;;;-142.53;100.00
4133;BME280;2080;51.038;7.008;2023-02-22T00:56:57;76576.72;;;-142.53;100.00
4133;BME280;2080;51.038;7.008;2023-02-22T00:59:23;76574.78;;;-142.53;100.00
4133;BME280;2080;51.038;7.008;2023-02-22T01:01:48;76568.97;;;-142.53;100.00
4133;BME280;2080;51.038;7.008;2023-02-22T01:04:14;76565.09;;;-142.53;100.00
4133;BME280;2080;51.038;7.008;2023-02-22T01:06:39;76565.09;;;-142.53;100.00
4133;BME280;2080;51.038;7.008;2023-02-22T01:09:04;76553.44;;;-142.53;100.00
4133;BME280;2080;51.038;7.008;2023-02-22T01:11:34;76553.44;;;-142.53;100.00
4133;BME280;2080;51.038;7.008;2023-02-22T01:13:59;76572.84;;;-142.53;100.00
4133;BME280;2080;51.038;7.008;2023-02-22T01:16:27;76565.09;;;-142.53;100.00
4133;BME280;2080;51.038;7.008;2023-02-22T01:18:52;76561.19;;;-142.53;100.00
4133;BME280;2080;51.038;7.008;2023-02-22T01:21:18;76557.31;;;-142.53;100.00
4133;BME280;2080;51.038;7.008;2023-02-22T01:23:45;76576.72;;;-142.53;100.00
4133;BME280;2080;51.038;7.008;2023-02-22T01:26:13;76580.63;;;-142.53;100.00
4133;BME280;2080;51.038;7.008;2023-02-22T01:28:43;76570.91;;;-142.53;100.00
4133;BME280;2080;51.038;7.008;2023-02-22T01:31:17;76565.09;;;-142.53;100.00
4133;BME280;2080;51.038;7.008;2023-02-22T01:33:42;76568.97;;;-142.53;100.00
4133;BME280;2080;51.038;7.008;2023-02-22T01:36:08;76588.38;;;-142.53;100.00
4133;BME280;2080;51.038;7.008;2023-02-22T01:38:37;76572.84;;;-142.53;100.00
4133;BME280;2080;51.038;7.008;2023-02-22T01:41:03;76568.97;;;-142.53;100.00
4133;BME280;2080;51.038;7.008;2023-02-22T01:43:31;76559.25;;;-142.53;100.00
4133;BME280;2080;51.038;7.008;2023-02-22T01:46:02;76551.47;;;-142.53;100.00
4133;BME280;2080;51.038;7.008;2023-02-22T01:48:37;76557.31;;;-142.53;100.00
4133;BME280;2080;51.038;7.008;2023-02-22T01:51:09;76553.44;;;-142.53;100.00
4133;BME280;2080;51.038;7.008;2023-02-22T01:53:42;76551.47;;;-142.53;100.00
4133;BME280;2080;51.038;7.008;2023-02-22T01:56:09;76565.09;;;-142.53;100.00
4133;BME280;2080;51.038;7.008;2023-02-22T01:58:35;76561.19;;;-142.53;100.00
4133;BME280;2080;51.038;7.008;2023-02-22T02:01:03;76549.53;;;-142.53;100.00
4133;BME280;2080;51.038;7.008;2023-02-22T02:03:30;76557.31;;;-142.53;100.00
4133;BME280;2080;51.038;7.008;2023-02-22T02:06:00;76553.44;;;-142.53;100.00
4133;BME280;2080;51.038;7.008;2023-02-22T02:08:32;76553.44;;;-142.53;100.00
4133;BME280;2080;51.038;7.008;2023-02-22T02:11:03;76565.09;;;-142.53;100.00
4133;BME280;2080;51.038;7.008;2023-02-22T02:13:29;76557.31;;;-142.53;100.00
4133;BME280;2080;51.038;7.008;2023-02-22T02:15:55;76559.25;;;-142.53;100.00
4133;BME280;2080;51.038;7.008;2023-02-22T02:18:21;76557.31;;;-142.53;100.00
4133;BME280;2080;51.038;7.008;2023-02-22T02:27:04;76561.19;;;-142.53;100.00
4133;BME280;2080;51.038;7.008;2023-02-22T02:34:57;76592.28;;;-142.53;100.00
4133;BME280;2080;51.038;7.008;2023-02-22T02:40:36;76584.50;;;-142.53;100.00
4133;BME280;2080;51.038;7.008;2023-02-22T02:44:23;76576.72;;;-142.53;100.00
4133;BME280;2080;51.038;7.008;2023-02-22T02:46:32;76592.28;;;-142.53;100.00
4133;BME280;2080;51.038;7.008;2023-02-22T02:49:02;76611.69;;;-142.53;100.00
4133;BME280;2080;51.038;7.008;2023-02-22T02:51:39;76623.34;;;-142.53;100.00
4133;BME280;2080;51.038;7.008;2023-02-22T02:54:09;76638.91;;;-142.53;100.00
4133;BME280;2080;51.038;7.008;2023-02-22T02:56:40;76642.78;;;-142.53;100.00
4133;BME280;2080;51.038;7.008;2023-02-22T02:59:32;76642.78;;;-142.53;100.00
4133;BME280;2080;51.038;7.008;2023-02-22T03:05:10;76636.94;;;-142.53;100.00
4133;BME280;2080;51.038;7.008;2023-02-22T03:07:45;76631.13;;;-142.53;100.00
4133;BME280;2080;51.038;7.008;2023-02-22T03:10:19;76631.13;;;-142.53;100.00
4133;BME280;2080;51.038;7.008;2023-02-22T03:12:59;76635.00;;;-142.53;100.00
4133;BME280;2080;51.038;7.008;2023-02-22T03:18:26;76631.13;;;-142.53;100.00
4133;BME280;2080;51.038;7.008;2023-02-22T03:23:46;76638.91;;;-142.53;100.00
4133;BME280;2080;51.038;7.008;2023-02-22T03:26:20;76650.56;;;-142.53;100.00
4133;BME280;2080;51.038;7.008;2023-02-22T03:28:50;76648.59;;;-142.53;100.00
4133;BME280;2080;51.038;7.008;2023-02-22T03:31:24;76654.44;;;-142.53;100.00
4133;BME280;2080;51.038;7.008;2023-02-22T03:33:56;76666.09;;;-142.53;100.00
4133;BME280;2080;51.038;7.008;2023-02-22T03:36:50;76662.19;;;-142.53;100.00
4133;BME280;2080;51.038;7.008;2023-02-22T03:39:21;76646.66;;;-142.53;100.00
4133;BME280;2080;51.038;7.008;2023-02-22T03:41:53;76638.91;;;-142.53;100.00
4133;BME280;2080;51.038;7.008;2023-02-22T03:44:22;76636.94;;;-142.53;100.00
4133;BME280;2080;51.038;7.008;2023-02-22T03:46:51;76631.13;;;-142.53;100.00
4133;BME280;2080;51.038;7.008;2023-02-22T03:49:31;76654.44;;;-142.53;100.00
4133;BME280;2080;51.038;7.008;2023-02-22T03:52:00;76646.66;;;-142.53;100.00
4133;BME280;2080;51.038;7.008;2023-02-22T03:54:26;76650.56;;;-142.53;100.00
4133;BME280;2080;51.038;7.008;2023-02-22T03:56:55;76642.78;;;-142.53;100.00
4133;BME280;2080;51.038;7.008;2023-02-22T03:59:23;76644.72;;;-142.53;100.00
4133;BME280;2080;51.038;7.008;2023-02-22T04:01:54;76648.59;;;-142.53;100.00
4133;BME280;2080;51.038;7.008;2023-02-22T04:04:22;76650.56;;;-142.53;100.00
4133;BME280;2080;51.038;7.008;2023-02-22T04:06:51;76660.25;;;-142.53;100.00
4133;BME280;2080;51.038;7.008;2023-02-22T04:09:17;76669.97;;;-142.53;100.00
4133;BME280;2080;51.038;7.008;2023-02-22T04:11:43;76687.47;;;-142.53;100.00
4133;BME280;2080;51.038;7.008;2023-02-22T04:14:08;76693.28;;;-142.53;100.00
4133;BME280;2080;51.038;7.008;2023-02-22T04:16:33;76697.16;;;-142.53;100.00
4133;BME280;2080;51.038;7.008;2023-02-22T04:18:59;76695.22;;;-142.53;100.00
4133;BME280;2080;51.038;7.008;2023-02-22T04:21:24;76697.16;;;-142.53;100.00
4133;BME280;2080;51.038;7.008;2023-02-22T04:23:50;76708.81;;;-142.53;100.00
4133;BME280;2080;51.038;7.008;2023-02-22T04:26:15;76712.72;;;-142.53;100.00
4133;BME280;2080;51.038;7.008;2023-02-22T04:28:41;76708.81;;;-142.53;100.00
4133;BME280;2080;51.038;7.008;2023-02-22T04:31:06;76724.38;;;-142.53;100.00
4133;BME280;2080;51.038;7.008;2023-02-22T04:33:31;76732.13;;;-142.53;100.00
4133;BME280;2080;51.038;7.008;2023-02-22T04:35:57;76743.78;;;-142.53;100.00
4133;BME280;2080;51.038;7.008;2023-02-22T04:38:25;76757.38;;;-142.53;100.00
4133;BME280;2080;51.038;7.008;2023-02-22T04:40:52;76747.66;;;-142.53;100.00
4133;BME280;2080;51.038;7.008;2023-02-22T04:43:17;76747.66;;;-142.53;100.00
4133;BME280;2080;51.038;7.008;2023-02-22T04:45:43;76736.03;;;-142.53;100.00
4133;BME280;2080;51.038;7.008;2023-02-22T04:48:12;76736.03;;;-142.53;100.00
4133;BME280;2080;51.038;7.008;2023-02-22T04:50:40;76739.91;;;-142.53;100.00
4133;BME280;2080;51.038;7.008;2023-02-22T04:53:05;76743.78;;;-142.53;100.00
4133;BME280;2080;51.038;7.008;2023-02-22T04:55:30;76751.56;;;-142.53;100.00
4133;BME280;2080;51.038;7.008;2023-02-22T04:57:58;76769.03;;;-142.53;100.00
4133;BME280;2080;51.038;7.008;2023-02-22T05:00:26;76774.88;;;-142.53;100.00
4133;BME280;2080;51.038;7.008;2023-02-22T05:02:51;76767.09;;;-142.53;100.00
4133;BME280;2080;51.038;7.008;2023-02-22T05:05:23;76755.44;;;-142.53;100.00
4133;BME280;2080;51.038;7.008;2023-02-22T05:07:49;76774.88;;;-142.53;100.00
4133;BME280;2080;51.038;7.008;2023-02-22T05:10:15;76769.03;;;-142.53;100.00
4133;BME280;2080;51.038;7.008;2023-02-22T05:12:40;76765.16;;;-142.53;100.00
4133;BME280;2080;51.038;7.008;2023-02-22T05:15:07;76767.09;;;-142.53;100.00
4133;BME280;2080;51.038;7.008;2023-02-22T05:17:33;76767.09;;;-142.53;100.00
4133;BME280;2080;51.038;7.008;2023-02-22T05:19:58;76759.34;;;-142.53;100.00
4133;BME280;2080;51.038;7.008;2023-02-22T05:22:26;76755.44;;;-142.53;100.00
4133;BME280;2080;51.038;7.008;2023-02-22T05:24:51;76751.56;;;-142.53;100.00
4133;BME280;2080;51.038;7.008;2023-02-22T05:27:18;76763.22;;;-142.53;100.00
4133;BME280;2080;51.038;7.008;2023-02-22T05:29:46;76767.09;;;-142.53;100.00
4133;BME280;2080;51.038;7.008;2023-02-22T05:32:16;76782.63;;;-142.53;100.00
4133;BME280;2080;51.038;7.008;2023-02-22T05:34:41;76767.09;;;-142.53;100.00
4133;BME280;2080;51.038;7.008;2023-02-22T05:37:08;76794.28;;;-142.53;100.00
4133;BME280;2080;51.038;7.008;2023-02-22T05:39:36;76786.53;;;-142.53;100.00
4133;BME280;2080;51.038;7.008;2023-02-22T05:42:01;76798.19;;;-142.53;100.00
4133;BME280;2080;51.038;7.008;2023-02-22T05:44:27;76790.41;;;-142.53;100.00
4133;BME280;2080;51.038;7.008;2023-02-22T05:46:54;76805.94;;;-142.53;100.00
4133;BME280;2080;51.038;7.008;2023-02-22T05:49:22;76809.84;;;-142.53;100.00
4133;BME280;2080;51.038;7.008;2023-02-22T05:51:52;76821.50;;;-142.53;100.00
4133;BME280;2080;51.038;7.008;2023-02-22T05:54:23;76833.16;;;-142.53;100.00
4133;BME280;2080;51.038;7.008;2023-02-22T05:56:49;76833.16;;;-142.53;100.00
4133;BME280;2080;51.038;7.008;2023-02-22T05:59:14;76848.69;;;-142.53;100.00
4133;BME280;2080;51.038;7.008;2023-02-22T06:01:39;76856.47;;;-142.53;100.00
4133;BME280;2080;51.038;7.008;2023-02-22T06:04:07;76856.47;;;-142.53;100.00
4133;BME280;2080;51.038;7.008;2023-02-22T06:06:33;76852.56;;;-142.53;100.00
4133;BME280;2080;51.038;7.008;2023-02-22T06:08:58;76844.81;;;-142.53;100.00
4133;BME280;2080;51.038;7.008;2023-02-22T06:11:24;76837.03;;;-142.53;100.00
4133;BME280;2080;51.038;7.008;2023-02-22T06:13:50;76848.69;;;-142.53;100.00
4133;BME280;2080;51.038;7.008;2023-02-22T06:16:16;76840.91;;;-142.53;100.00
4133;BME280;2080;51.038;7.008;2023-02-22T06:18:44;76838.97;;;-142.53;100.00
4133;BME280;2080;51.038;7.008;2023-02-22T06:21:12;76848.69;;;-142.53;100.00
4133;BME280;2080;51.038;7.008;2023-02-22T06:23:37;76868.13;;;-142.53;100.00
4133;BME280;2080;51.038;7.008;2023-02-22T06:26:05;76873.94;;;-142.53;100.00
4133;BME280;2080;51.038;7.008;2023-02-22T06:28:30;76875.88;;;-142.53;100.00
4133;BME280;2080;51.038;7.008;2023-02-22T06:30:56;76872.00;;;-142.53;100.00
4133;BME280;2080;51.038;7.008;2023-02-22T06:33:23;76877.81;;;-142.53;100.00
4133;BME280;2080;51.038;7.008;2023-02-22T06:35:51;76875.88;;;-142.53;100.00
4133;BME280;2080;51.038;7.008;2023-02-22T06:38:21;76873.94;;;-142.53;100.00
4133;BME280;2080;51.038;7.008;2023-02-22T06:40:47;76872.00;;;-142.53;100.00
4133;BME280;2080;51.038;7.008;2023-02-22T06:43:12;76875.88;;;-142.53;100.00
4133;BME280;2080;51.038;7.008;2023-02-22T06:45:37;76872.00;;;-142.53;100.00
4133;BME280;2080;51.038;7.008;2023-02-22T06:48:03;76862.28;;;-142.53;100.00
4133;BME280;2080;51.038;7.008;2023-02-22T06:50:29;76860.34;;;-142.53;100.00
4133;BME280;2080;51.038;7.008;2023-02-22T06:52:59;76850.63;;;-142.53;100.00
4133;BME280;2080;51.038;7.008;2023-02-22T06:55:30;76837.03;;;-142.53;100.00
4133;BME280;2080;51.038;7.008;2023-02-22T06:57:56;76829.25;;;-142.53;100.00
4133;BME280;2080;51.038;7.008;2023-02-22T07:00:24;76817.59;;;-142.53;100.00
4133;BME280;2080;51.038;7.008;2023-02-22T07:02:50;76800.13;;;-142.53;100.00
4133;BME280;2080;51.038;7.008;2023-02-22T07:05:21;76782.63;;;-142.53;100.00
4133;BME280;2080;51.038;7.008;2023-02-22T07:07:50;76770.97;;;-142.53;100.00
4133;BME280;2080;51.038;7.008;2023-02-22T07:12:48;76747.66;;;-142.53;100.00
4133;BME280;2080;51.038;7.008;2023-02-22T07:15:17;76736.03;;;-142.53;100.00
4133;BME280;2080;51.038;7.008;2023-02-22T07:17:45;76708.81;;;-142.53;100.00
4133;BME280;2080;51.038;7.008;2023-02-22T07:20:11;76693.28;;;-142.53;100.00
4133;BME280;2080;51.038;7.008;2023-02-22T07:22:37;76675.81;;;-142.53;100.00
4133;BME280;2080;51.038;7.008;2023-02-22T07:25:09;76669.97;;;-142.53;100.00
4133;BME280;2080;51.038;7.008;2023-02-22T07:27:38;76646.66;;;-142.53;100.00
4133;BME280;2080;51.038;7.008;2023-02-22T07:30:07;76629.19;;;-142.53;100.00
4133;BME280;2080;51.038;7.008;2023-02-22T07:32:35;76609.75;;;-142.53;100.00
4133;BME280;2080;51.038;7.008;2023-02-22T07:35:00;76592.28;;;-142.53;100.00
4133;BME280;2080;51.038;7.008;2023-02-22T07:37:29;76580.63;;;-142.53;100.00
4133;BME280;2080;51.038;7.008;2023-02-22T07:39:54;76561.19;;;-142.53;100.00
4133;BME280;2080;51.038;7.008;2023-02-22T07:42:22;76545.66;;;-142.53;100.00
4133;BME280;2080;51.038;7.008;2023-02-22T07:44:47;76522.34;;;-142.53;100.00
4133;BME280;2080;51.038;7.008;2023-02-22T07:47:13;76510.69;;;-142.53;100.00
4133;BME280;2080;51.038;7.008;2023-02-22T07:49:40;76483.50;;;-142.53;100.00
4133;BME280;2080;51.038;7.008;2023-02-22T07:52:08;76458.25;;;-142.53;100.00
4133;BME280;2080;51.038;7.008;2023-02-22T07:54:33;76440.78;;;-142.53;100.00
4133;BME280;2080;51.038;7.008;2023-02-22T07:56:58;76417.47;;;-142.53;100.00
4133;BME280;2080;51.038;7.008;2023-02-22T07:59:24;76405.81;;;-142.53;100.00
4133;BME280;2080;51.038;7.008;2023-02-22T08:01:49;76382.50;;;-142.53;100.00
4133;BME280;2080;51.038;7.008;2023-02-22T08:04:19;76359.19;;;-142.53;100.00
4133;BME280;2080;51.038;7.008;2023-02-22T08:06:45;76333.94;;;-142.53;100.00
4133;BME280;2080;51.038;7.008;2023-02-22T08:09:10;76332.00;;;-142.53;100.00
4133;BME280;2080;51.038;7.008;2023-02-22T08:11:41;76322.28;;;-142.53;100.00
4133;BME280;2080;51.038;7.008;2023-02-22T08:14:06;76308.69;;;-142.53;100.00
4133;BME280;2080;51.038;7.008;2023-02-22T08:16:31;76300.91;;;-142.53;100.00
4133;BME280;2080;51.038;7.008;2023-02-22T08:19:00;76289.28;;;-142.53;100.00
4133;BME280;2080;51.038;7.008;2023-02-22T08:21:25;76281.50;;;-142.53;100.00
4133;BME280;2080;51.038;7.008;2023-02-22T08:23:53;76262.06;;;-142.53;100.00
4133;BME280;2080;51.038;7.008;2023-02-22T08:26:22;76262.06;;;-142.53;100.00
4133;BME280;2080;51.038;7.008;2023-02-22T08:28:49;76252.38;;;-142.53;100.00
4133;BME280;2080;51.038;7.008;2023-02-22T08:31:17;76248.47;;;-142.53;100.00
4133;BME280;2080;51.038;7.008;2023-02-22T08:33:46;76238.78;;;-142.53;100.00
4133;BME280;2080;51.038;7.008;2023-02-22T08:36:14;76207.69;;;-142.53;100.00
4133;BME280;2080;51.038;7.008;2023-02-22T08:38:40;76192.16;;;-142.53;100.00
4133;BME280;2080;51.038;7.008;2023-02-22T08:41:05;76170.78;;;-142.53;100.00
4133;BME280;2080;51.038;7.008;2023-02-22T08:43:31;76157.19;;;-142.53;100.00
4133;BME280;2080;51.038;7.008;2023-02-22T08:45:58;76141.66;;;-142.53;100.00
4133;BME280;2080;51.038;7.008;2023-02-22T08:48:24;76112.53;;;-142.53;100.00
4133;BME280;2080;51.038;7.008;2023-02-22T08:50:50;76095.03;;;-142.53;100.00
4133;BME280;2080;51.038;7.008;2023-02-22T08:53:16;76071.75;;;-142.53;100.00
4133;BME280;2080;51.038;7.008;2023-02-22T08:55:44;76052.31;;;-142.53;100.00
4133;BME280;2080;51.038;7.008;2023-02-22T08:58:09;76036.78;;;-142.53;100.00
4133;BME280;2080;51.038;7.008;2023-02-22T09:00:38;76027.06;;;-142.53;100.00
4133;BME280;2080;51.038;7.008;2023-02-22T09:03:12;76005.72;;;-142.53;100.00
4133;BME280;2080;51.038;7.008;2023-02-22T09:05:41;75990.16;;;-142.53;100.00
4133;BME280;2080;51.038;7.008;2023-02-22T09:08:07;75949.38;;;-142.53;100.00
4133;BME280;2080;51.038;7.008;2023-02-22T09:10:34;75947.44;;;-142.53;100.00
4133;BME280;2080;51.038;7.008;2023-02-22T09:12:59;75941.63;;;-142.53;100.00
4133;BME280;2080;51.038;7.008;2023-02-22T09:15:28;75933.84;;;-142.53;100.00
4133;BME280;2080;51.038;7.008;2023-02-22T09:17:54;75931.91;;;-142.53;100.00
4133;BME280;2080;51.038;7.008;2023-02-22T09:20:21;75912.50;;;-142.53;100.00
4133;BME280;2080;51.038;7.008;2023-02-22T09:22:48;75885.28;;;-142.53;100.00
4133;BME280;2080;51.038;7.008;2023-02-22T09:25:14;75865.88;;;-142.53;100.00
4133;BME280;2080;51.038;7.008;2023-02-22T09:27:43;75858.09;;;-142.53;100.00
4133;BME280;2080;51.038;7.008;2023-02-22T09:30:23;75836.75;;;-142.53;100.00
4133;BME280;2080;51.038;7.008;2023-02-22T09:32:53;75823.16;;;-142.53;100.00
4133;BME280;2080;51.038;7.008;2023-02-22T09:35:20;75823.16;;;-142.53;100.00
4133;BME280;2080;51.038;7.008;2023-02-22T09:37:54;75811.50;;;-142.53;100.00
4133;BME280;2080;51.038;7.008;2023-02-22T09:40:20;75803.72;;;-142.53;100.00
4133;BME280;2080;51.038;7.008;2023-02-22T09:49:01;75780.44;;;-142.53;100.00
4133;BME280;2080;51.038;7.008;2023-02-22T09:54:13;75745.47;;;-142.53;100.00
4133;BME280;2080;51.038;7.008;2023-02-22T09:56:43;75722.16;;;-142.53;100.00
4133;BME280;2080;51.038;7.008;2023-02-22T09:59:14;75710.53;;;-142.53;100.00
4133;BME280;2080;51.038;7.008;2023-02-22T10:01:46;75694.97;;;-142.53;98.38
4133;BME280;2080;51.038;7.008;2023-02-22T10:04:35;75694.97;;;-142.53;97.58
4133;BME280;2080;51.038;7.008;2023-02-22T10:09:51;75687.22;;;-142.53;97.44
4133;BME280;2080;51.038;7.008;2023-02-22T10:12:40;75663.91;;;-142.53;95.92
4133;BME280;2080;51.038;7.008;2023-02-22T10:20:58;75636.72;;;-142.53;91.64
4133;BME280;2080;51.038;7.008;2023-02-22T10:25:56;75611.47;;;-142.53;89.52
4133;BME280;2080;51.038;7.008;2023-02-22T10:28:27;75601.78;;;-142.53;89.96
4133;BME280;2080;51.038;7.008;2023-02-22T10:31:03;75601.78;;;-142.53;90.19
4133;BME280;2080;51.038;7.008;2023-02-22T10:33:37;75592.06;;;-142.53;89.47
4133;BME280;2080;51.038;7.008;2023-02-22T10:36:04;75566.81;;;-142.53;87.85
4133;BME280;2080;51.038;7.008;2023-02-22T10:38:33;75562.94;;;-142.53;87.94
4133;BME280;2080;51.038;7.008;2023-02-22T10:41:11;75535.75;;;-142.53;86.14
4133;BME280;2080;51.038;7.008;2023-02-22T10:43:47;75512.44;;;-142.53;86.40
4133;BME280;2080;51.038;7.008;2023-02-22T10:46:15;75504.69;;;-142.53;84.55
4133;BME280;2080;51.038;7.008;2023-02-22T10:48:44;75467.78;;;-142.53;82.60
4133;BME280;2080;51.038;7.008;2023-02-22T10:51:11;75446.44;;;-142.53;80.83
4133;BME280;2080;51.038;7.008;2023-02-22T10:53:37;75427.00;;;-142.53;79.92
4133;BME280;2080;51.038;7.008;2023-02-22T10:59:03;75407.59;;;-142.53;74.52
4133;BME280;2080;51.038;7.008;2023-02-22T11:04:11;75384.28;;;-142.53;73.52
4133;BME280;2080;51.038;7.008;2023-02-22T11:06:39;75372.63;;;-142.53;73.89
4133;BME280;2080;51.038;7.008;2023-02-22T11:09:14;75341.56;;;-142.53;72.47
4133;BME280;2080;51.038;7.008;2023-02-22T11:11:42;75341.56;;;-142.53;72.38
4133;BME280;2080;51.038;7.008;2023-02-22T11:14:11;75306.63;;;-142.53;70.00
4133;BME280;2080;51.038;7.008;2023-02-22T11:16:42;75287.19;;;-142.53;64.68
4133;BME280;2080;51.038;7.008;2023-02-22T11:19:23;75279.44;;;-142.53;63.60
4133;BME280;2080;51.038;7.008;2023-02-22T11:24:26;75271.66;;;-142.53;64.60
4133;BME280;2080;51.038;7.008;2023-02-22T11:26:58;75298.84;;;-142.53;64.11
4133;BME280;2080;51.038;7.008;2023-02-22T11:29:35;75300.78;;;-142.53;63.86
4133;BME280;2080;51.038;7.008;2023-02-22T11:32:10;75304.69;;;-142.53;63.96
4133;BME280;2080;51.038;7.008;2023-02-22T11:34:41;75283.31;;;-142.53;65.26
4133;BME280;2080;51.038;7.008;2023-02-22T11:39:48;75252.25;;;-142.53;64.38
4133;BME280;2080;51.038;7.008;2023-02-22T11:42:28;75230.88;;;-142.53;63.41
4133;BME280;2080;51.038;7.008;2023-02-22T11:45:10;75199.81;;;-142.53;60.29
4133;BME280;2080;51.038;7.008;2023-02-22T11:50:29;75197.88;;;-142.53;57.76
4133;BME280;2080;51.038;7.008;2023-02-22T11:55:34;75143.53;;;-142.53;55.54
4133;BME280;2080;51.038;7.008;2023-02-22T12:09:15;75100.81;;;-142.53;51.87
4133;BME280;2080;51.038;7.008;2023-02-22T12:12:09;75116.34;;;-142.53;53.51
4133;BME280;2080;51.038;7.008;2023-02-22T12:14:54;75104.69;;;-142.53;53.44
4133;BME280;2080;51.038;7.008;2023-02-22T12:17:36;75104.69;;;-142.53;53.93
4133;BME280;2080;51.038;7.008;2023-02-22T12:20:24;75108.56;;;-142.53;53.24
4133;BME280;2080;51.038;7.008;2023-02-22T12:25:49;75127.97;;;-142.53;53.15
4133;BME280;2080;51.038;7.008;2023-02-22T12:28:21;75139.63;;;-142.53;53.93
4133;BME280;2080;51.038;7.008;2023-02-22T12:30:59;75114.38;;;-142.53;54.02
4133;BME280;2080;51.038;7.008;2023-02-22T12:33:31;75100.81;;;-142.53;52.76
4133;BME280;2080;51.038;7.008;2023-02-22T12:36:03;75089.16;;;-142.53;52.36
4133;BME280;2080;51.038;7.008;2023-02-22T12:38:43;75085.28;;;-142.53;52.03
4133;BME280;2080;51.038;7.008;2023-02-22T12:41:35;75085.28;;;-142.53;50.24
4133;BME280;2080;51.038;7.008;2023-02-22T12:44:09;75073.63;;;-142.53;49.64
4133;BME280;2080;51.038;7.008;2023-02-22T12:46:48;75112.44;;;-142.53;50.76
4133;BME280;2080;51.038;7.008;2023-02-22T12:49:37;75096.91;;;-142.53;50.66
4133;BME280;2080;51.038;7.008;2023-02-22T12:57:39;75093.03;;;-142.53;50.98
4133;BME280;2080;51.038;7.008;2023-02-22T13:00:26;75104.69;;;-142.53;51.77
4133;BME280;2080;51.038;7.008;2023-02-22T13:03:02;75100.81;;;-142.53;51.66
4133;BME280;2080;51.038;7.008;2023-02-22T13:05:33;75093.03;;;-142.53;51.47
4133;BME280;2080;51.038;7.008;2023-02-22T13:16:05;75161.00;;;-142.53;53.00
4133;BME280;2080;51.038;7.008;2023-02-22T13:26:23;75178.47;;;-142.53;56.19
4133;BME280;2080;51.038;7.008;2023-02-22T13:28:59;75178.47;;;-142.53;55.79
4133;BME280;2080;51.038;7.008;2023-02-22T13:52:37;75096.91;;;-142.53;54.27
4133;BME280;2080;51.038;7.008;2023-02-22T13:55:13;75085.28;;;-142.53;53.67
4133;BME280;2080;51.038;7.008;2023-02-22T13:57:44;75083.31;;;-142.53;54.50
4133;BME280;2080;51.038;7.008;2023-02-22T14:08:00;74992.06;;;-142.53;50.94
4133;BME280;2080;51.038;7.008;2023-02-22T14:13:18;74980.41;;;-142.53;48.99
4133;BME280;2080;51.038;7.008;2023-02-22T14:18:42;74988.19;;;-142.53;48.63
4133;BME280;2080;51.038;7.008;2023-02-22T14:21:08;75007.59;;;-142.53;48.33
4133;BME280;2080;51.038;7.008;2023-02-22T14:31:34;75017.31;;;-142.53;49.52
4133;BME280;2080;51.038;7.008;2023-02-22T14:39:59;75019.25;;;-142.53;49.95
4133;BME280;2080;51.038;7.008;2023-02-22T14:43:09;75011.50;;;-142.53;49.31
4133;BME280;2080;51.038;7.008;2023-02-22T14:45:43;75027.03;;;-142.53;48.53
4133;BME280;2080;51.038;7.008;2023-02-22T14:50:49;75011.50;;;-142.53;49.42
4133;BME280;2080;51.038;7.008;2023-02-22T14:56:22;75003.72;;;-142.53;49.32
4133;BME280;2080;51.038;7.008;2023-02-22T14:59:12;74966.84;;;-142.53;48.78
4133;BME280;2080;51.038;7.008;2023-02-22T15:01:39;74968.78;;;-142.53;48.03
4133;BME280;2080;51.038;7.008;2023-02-22T15:06:46;74980.41;;;-142.53;48.27
4133;BME280;2080;51.038;7.008;2023-02-22T15:11:54;74982.38;;;-142.53;47.78
4133;BME280;2080;51.038;7.008;2023-02-22T15:14:36;74972.66;;;-142.53;47.89
4133;BME280;2080;51.038;7.008;2023-02-22T15:17:11;74972.66;;;-142.53;47.93
4133;BME280;2080;51.038;7.008;2023-02-22T15:19:40;74980.41;;;-142.53;47.84
4133;BME280;2080;51.038;7.008;2023-02-22T15:22:19;75023.13;;;-142.53;48.31
4133;BME280;2080;51.038;7.008;2023-02-22T15:24:56;75046.44;;;-142.53;48.78
4133;BME280;2080;51.038;7.008;2023-02-22T15:27:22;75058.09;;;-142.53;49.24
4133;BME280;2080;51.038;7.008;2023-02-22T15:29:56;75077.50;;;-142.53;49.24
4133;BME280;2080;51.038;7.008;2023-02-22T15:32:39;75100.81;;;-142.53;49.23
4133;BME280;2080;51.038;7.008;2023-02-22T15:35:26;75089.16;;;-142.53;49.35
4133;BME280;2080;51.038;7.008;2023-02-22T15:38:03;75108.56;;;-142.53;49.66
4133;BME280;2080;51.038;7.008;2023-02-22T15:40:31;75129.94;;;-142.53;50.32
4133;BME280;2080;51.038;7.008;2023-02-22T15:43:01;75120.22;;;-142.53;50.43